createdAt,value
2023-05-02T00:06:16.542Z,84.3
2023-05-02T00:21:39.850Z,84.8
2023-05-02T00:37:03.148Z,84.6
2023-05-02T00:52:26.451Z,85.4
2023-05-02T01:07:48.752Z,86.6
2023-05-02T01:23:12.052Z,87.5
2023-05-02T01:38:35.350Z,88.2
2023-05-02T01:53:58.647Z,87.8
2023-05-02T02:09:21.953Z,87
2023-05-02T02:24:44.272Z,87.4
2023-05-02T02:40:07.553Z,87.6
2023-05-02T02:55:30.855Z,87.9
2023-05-02T03:10:54.162Z,88.3
2023-05-02T03:26:17.412Z,88.8
2023-05-02T03:41:40.664Z,88.9
2023-05-02T03:57:03.930Z,89.2
2023-05-02T04:12:27.173Z,89.3
2023-05-02T04:27:50.443Z,87.8
2023-05-02T04:43:13.697Z,88.2
2023-05-02T04:58:36.944Z,87.8
2023-05-02T05:14:00.199Z,88.1
2023-05-02T05:29:23.454Z,87.5
2023-05-02T05:44:45.736Z,86.4
2023-05-02T06:00:08.981Z,85.2
2023-05-02T06:15:32.256Z,84.4
2023-05-02T06:30:55.503Z,84.1
2023-05-02T06:46:18.759Z,87
2023-05-02T07:01:42.005Z,86.5
2023-05-02T07:17:05.263Z,82.1
2023-05-02T07:32:28.520Z,79.9
2023-05-02T07:47:51.792Z,81.8
2023-05-02T08:03:15.041Z,80.8
2023-05-02T08:18:38.000Z,79.3
2023-05-02T08:34:01.550Z,74
2023-05-02T08:49:24.809Z,81
2023-05-02T09:04:47.073Z,93.1
2023-05-02T09:20:10.328Z,91.1
2023-05-02T09:35:33.601Z,82.7
2023-05-02T09:36:57.007Z,78.4
2023-05-02T09:38:20.403Z,78
2023-05-02T09:39:43.819Z,80
2023-05-02T09:41:07.226Z,81.9
2023-05-02T09:42:30.625Z,80.9
2023-05-02T09:43:54.048Z,80.9
2023-05-02T09:45:17.454Z,81.5
2023-05-02T09:46:40.864Z,81.4
2023-05-02T09:48:04.270Z,82.2
2023-05-02T09:49:27.683Z,83.6
2023-05-02T09:50:50.117Z,82.5
2023-05-02T09:52:13.518Z,83
2023-05-02T09:53:36.913Z,83.3
2023-05-02T09:55:00.332Z,83.3
2023-05-02T09:56:23.748Z,82.4
2023-05-02T09:57:47.145Z,83.1
2023-05-02T09:59:10.562Z,80.6
2023-05-02T10:00:33.965Z,81.5
2023-05-02T10:01:57.383Z,79.1
2023-05-02T10:03:20.795Z,80
2023-05-02T10:04:44.198Z,80.5
2023-05-02T10:06:07.609Z,79.6
2023-05-02T10:07:31.025Z,79.9
2023-05-02T10:08:53.432Z,78.1
2023-05-02T10:10:16.848Z,78
2023-05-02T10:11:40.262Z,78.5
2023-05-02T10:13:03.667Z,76.1
2023-05-02T10:14:27.079Z,76.2
2023-05-02T10:15:50.495Z,75.8
2023-05-02T10:17:13.895Z,76
2023-05-02T10:18:37.304Z,73.8
2023-05-02T10:20:00.702Z,75.2
2023-05-02T10:21:24.103Z,76
2023-05-02T10:22:47.516Z,75.4
2023-05-02T10:24:10.940Z,74.9
2023-05-02T10:25:34.339Z,75.3
2023-05-02T10:26:56.774Z,76.5
2023-05-02T10:28:20.177Z,77.3
2023-05-02T10:29:43.574Z,77
2023-05-02T10:31:06.986Z,78.3
2023-05-02T10:32:30.400Z,79.3
2023-05-02T10:33:53.813Z,79.2
2023-05-02T10:35:17.225Z,79.3
2023-05-02T10:36:40.628Z,78.9
2023-05-02T10:38:04.025Z,79
2023-05-02T10:39:27.447Z,77.9
2023-05-02T10:40:50.841Z,76.9
2023-05-02T10:42:14.258Z,75.5
2023-05-02T10:43:37.664Z,77.2
2023-05-02T10:45:00.090Z,76.4
2023-05-02T10:46:23.497Z,74.8
2023-05-02T10:47:46.891Z,73.7
2023-05-02T10:49:10.303Z,73.2
2023-05-02T10:50:33.713Z,73.8
2023-05-02T10:51:57.119Z,71.1
2023-05-02T10:53:20.529Z,69.2
2023-05-02T10:54:43.950Z,68.6
2023-05-02T10:56:07.361Z,68.9
2023-05-02T10:57:30.753Z,65.2
2023-05-02T10:58:54.167Z,65.7
2023-05-02T11:00:17.568Z,66.2
2023-05-02T11:01:40.988Z,66
2023-05-02T11:03:03.397Z,65.3
2023-05-02T11:05:50.213Z,65.9
2023-05-02T11:07:13.622Z,67.3
2023-05-02T11:08:37.046Z,68.3
2023-05-02T11:10:00.437Z,66.2
2023-05-02T11:11:23.847Z,66.6
2023-05-02T11:12:47.259Z,67.7
2023-05-02T11:14:10.686Z,67.8
2023-05-02T11:15:34.095Z,67
2023-05-02T11:16:57.492Z,69.4
2023-05-02T11:18:20.910Z,69.1
2023-05-02T11:19:44.301Z,70.5
2023-05-02T11:21:06.733Z,68.5
2023-05-02T11:22:30.149Z,70.4
2023-05-02T11:23:53.545Z,68.4
2023-05-02T11:25:16.947Z,68.1
2023-05-02T11:26:40.354Z,67.8
2023-05-02T11:28:03.768Z,66.7
2023-05-02T11:29:27.176Z,67.6
2023-05-02T11:30:50.587Z,65.4
2023-05-02T11:32:13.995Z,65.3
2023-05-02T11:33:37.406Z,65.9
2023-05-02T11:35:00.821Z,66.5
2023-05-02T11:36:24.222Z,65.1
2023-05-02T11:37:47.622Z,66
2023-05-02T11:39:10.050Z,66.5
2023-05-02T11:40:33.463Z,67
2023-05-02T11:41:56.874Z,66
2023-05-02T11:43:20.280Z,68.1
2023-05-02T11:44:43.698Z,65.2
2023-05-02T11:46:07.096Z,66.5
2023-05-02T11:47:30.514Z,65.5
2023-05-02T11:48:53.915Z,66.3
2023-05-02T11:50:17.310Z,65.5
2023-05-02T11:51:40.720Z,65.4
2023-05-02T11:53:04.146Z,66.4
2023-05-02T11:54:27.552Z,66.6
2023-05-02T11:55:50.958Z,66.1
2023-05-02T11:57:13.369Z,66.7
2023-05-02T11:58:36.795Z,68
2023-05-02T12:00:00.197Z,68.5
2023-05-02T12:01:23.610Z,68.5
2023-05-02T12:02:47.018Z,69.4
2023-05-02T12:04:10.420Z,71
2023-05-02T12:05:33.828Z,69.9
2023-05-02T12:06:57.236Z,70.6
2023-05-02T12:08:20.646Z,71.9
2023-05-02T12:09:44.046Z,72.5
2023-05-02T12:11:07.463Z,73.2
2023-05-02T12:12:30.875Z,74.3
2023-05-02T12:13:54.275Z,75.6
2023-05-02T12:15:16.700Z,76.5
2023-05-02T12:16:40.111Z,77.5
2023-05-02T12:18:03.521Z,78.2
2023-05-02T12:19:26.922Z,79.2
2023-05-02T12:20:50.329Z,78.7
2023-05-02T12:22:13.741Z,79.2
2023-05-02T12:23:37.151Z,79.8
2023-05-02T12:25:00.565Z,80.7
2023-05-02T12:26:23.965Z,81
2023-05-02T12:27:47.374Z,81.5
2023-05-02T12:29:10.798Z,82.4
2023-05-02T12:30:34.203Z,81.5
2023-05-02T12:31:57.614Z,81.4
2023-05-02T12:33:20.036Z,80.4
2023-05-02T12:34:43.445Z,79.4
2023-05-02T12:36:06.850Z,79.5
2023-05-02T12:37:30.247Z,79.8
2023-05-02T12:38:53.655Z,79.5
2023-05-02T12:40:17.065Z,78.4
2023-05-02T12:41:40.482Z,75.7
2023-05-02T12:43:03.887Z,74.4
2023-05-02T12:44:27.300Z,73
2023-05-02T12:45:50.697Z,72.8
2023-05-02T12:47:14.120Z,73.7
2023-05-02T12:48:37.516Z,73.9
2023-05-02T12:50:00.938Z,75.5
2023-05-02T12:51:23.345Z,75
2023-05-02T12:52:46.766Z,76.6
2023-05-02T12:54:10.179Z,76.8
2023-05-02T12:55:33.579Z,77
2023-05-02T12:56:56.980Z,77
2023-05-02T12:58:20.390Z,77.2
2023-05-02T12:59:43.804Z,76.3
2023-05-02T13:01:07.221Z,76.4
2023-05-02T13:02:30.612Z,77.9
2023-05-02T13:03:54.023Z,78
2023-05-02T13:05:17.438Z,78.8
2023-05-02T13:06:40.860Z,78.7
2023-05-02T13:08:04.255Z,77.9
2023-05-02T13:09:26.696Z,77.3
2023-05-02T13:10:50.093Z,76.7
2023-05-02T13:12:13.511Z,74.7
2023-05-02T13:13:36.911Z,74.7
2023-05-02T13:15:00.329Z,74.4
2023-05-02T13:16:23.731Z,74.2
2023-05-02T13:17:47.149Z,74.6
2023-05-02T13:19:10.550Z,75
2023-05-02T13:20:33.959Z,76.7
2023-05-02T13:21:57.368Z,75.3
2023-05-02T13:23:20.774Z,74.7
2023-05-02T13:24:44.197Z,74.5
2023-05-02T13:26:07.592Z,75.3
2023-05-02T13:27:30.016Z,75
2023-05-02T13:28:53.428Z,74.8
2023-05-02T13:30:16.826Z,74.1
2023-05-02T13:31:40.243Z,74.3
2023-05-02T13:33:03.649Z,73.7
2023-05-02T13:34:27.064Z,75.3
2023-05-02T13:35:49.483Z,74.5
2023-05-02T13:37:12.890Z,74.6
2023-05-02T13:38:36.314Z,73.5
2023-05-02T13:39:59.707Z,74.1
2023-05-02T13:41:23.115Z,73.7
2023-05-02T13:42:46.534Z,74.3
2023-05-02T13:44:09.938Z,74
2023-05-02T13:45:33.338Z,73.3
2023-05-02T13:46:56.754Z,74.3
2023-05-02T13:48:20.162Z,74.6
2023-05-02T13:49:43.570Z,73.9
2023-05-02T13:51:06.995Z,72.7
2023-05-02T13:52:30.394Z,72.7
2023-05-02T13:53:52.821Z,72.2
2023-05-02T13:55:16.229Z,72.7
2023-05-02T13:56:39.640Z,72.8
2023-05-02T13:58:03.039Z,73.7
2023-05-02T13:59:26.457Z,73.6
2023-05-02T14:00:49.871Z,73.6
2023-05-02T14:02:13.262Z,72.7
2023-05-02T14:03:36.685Z,72.8
2023-05-02T14:05:00.082Z,71.8
2023-05-02T14:06:23.490Z,71.8
2023-05-02T14:07:46.909Z,72.5
2023-05-02T14:09:10.313Z,72.7
2023-05-02T14:10:33.710Z,73.6
2023-05-02T14:11:56.141Z,73.4
2023-05-02T14:13:19.555Z,73
2023-05-02T14:14:42.967Z,73.2
2023-05-02T14:16:06.369Z,73.8
2023-05-02T14:17:29.773Z,73.9
2023-05-02T14:18:53.173Z,72.3
2023-05-02T14:20:16.590Z,73.2
2023-05-02T14:21:39.984Z,72.8
2023-05-02T14:23:03.400Z,72.9
2023-05-02T14:24:26.799Z,71.9
2023-05-02T14:25:50.209Z,71.9
2023-05-02T14:27:13.622Z,71.9
2023-05-02T14:28:37.020Z,72.1
2023-05-02T14:29:59.462Z,71.2
2023-05-02T14:31:22.860Z,71.5
2023-05-02T14:32:46.260Z,70.6
2023-05-02T14:34:09.686Z,71.4
2023-05-02T14:35:33.092Z,72.5
2023-05-02T14:36:56.459Z,72.9
2023-05-02T14:38:19.865Z,72.5
2023-05-02T14:39:43.285Z,72.8
2023-05-02T14:41:06.685Z,72.2
2023-05-02T14:42:30.087Z,72.2
2023-05-02T14:43:53.492Z,73
2023-05-02T14:45:16.908Z,74.3
2023-05-02T14:46:40.309Z,73.1
2023-05-02T14:48:02.746Z,72.1
2023-05-02T14:49:26.155Z,71.8
2023-05-02T14:50:49.565Z,72.3
2023-05-02T14:52:12.963Z,72.2
2023-05-02T14:53:36.375Z,71.4
2023-05-02T14:54:59.781Z,72
2023-05-02T14:56:23.201Z,72.2
2023-05-02T14:57:46.592Z,71.6
2023-05-02T14:59:10.004Z,72.4
2023-05-02T15:00:33.409Z,72.2
2023-05-02T15:01:56.835Z,72.1
2023-05-02T15:03:20.242Z,71.8
2023-05-02T15:04:43.641Z,71.9
2023-05-02T15:06:06.051Z,71.7
2023-05-02T15:07:29.475Z,70.6
2023-05-02T15:08:52.877Z,71.7
2023-05-02T15:10:16.291Z,71.7
2023-05-02T15:11:39.694Z,72.1
2023-05-02T15:13:03.097Z,71.3
2023-05-02T15:14:26.516Z,71.7
2023-05-02T15:15:49.917Z,72
2023-05-02T15:17:13.329Z,72
2023-05-02T15:18:36.737Z,73.2
2023-05-02T15:20:00.134Z,72.5
2023-05-02T15:21:23.551Z,72.8
2023-05-02T15:22:46.967Z,72.4
2023-05-02T15:24:09.373Z,71.6
2023-05-02T15:25:32.798Z,71.9
2023-05-02T15:26:56.214Z,72.1
2023-05-02T15:28:19.623Z,72.1
2023-05-02T15:29:43.029Z,72.6
2023-05-02T15:31:06.436Z,72.2
2023-05-02T15:32:29.838Z,71
2023-05-02T15:33:53.248Z,70
2023-05-02T15:35:16.666Z,70.3
2023-05-02T15:36:40.072Z,69.9
2023-05-02T15:38:03.480Z,69.5
2023-05-02T15:39:26.876Z,69.3
2023-05-02T15:40:50.286Z,68
2023-05-02T15:42:12.723Z,68.2
2023-05-02T15:43:36.124Z,68.3
2023-05-02T15:44:59.537Z,67.5
2023-05-02T15:46:22.936Z,66.9
2023-05-02T15:47:46.354Z,66.1
2023-05-02T15:49:09.775Z,67.3
2023-05-02T15:50:33.160Z,66.7
2023-05-02T15:51:56.572Z,67.3
2023-05-02T15:53:19.991Z,66.6
2023-05-02T15:54:43.398Z,67
2023-05-02T15:56:06.790Z,65.7
2023-05-02T15:57:30.201Z,65.9
2023-05-02T15:58:53.617Z,66.1
2023-05-02T16:00:16.045Z,66.3
2023-05-02T16:01:39.448Z,66.7
2023-05-02T16:03:02.852Z,68.3
2023-05-02T16:04:26.280Z,69
2023-05-02T16:05:49.687Z,68.4
2023-05-02T16:07:13.083Z,69.4
2023-05-02T16:08:36.489Z,70
2023-05-02T16:09:59.911Z,69.1
2023-05-02T16:11:23.320Z,70.3
2023-05-02T16:12:46.728Z,68.8
2023-05-02T16:14:10.140Z,69.3
2023-05-02T16:15:33.540Z,68.8
2023-05-02T16:16:56.936Z,69.2
2023-05-02T16:18:19.380Z,69.7
2023-05-02T16:19:42.792Z,69.5
2023-05-02T16:21:06.202Z,69.3
2023-05-02T16:23:53.016Z,69.6
2023-05-02T16:25:16.416Z,68.5
2023-05-02T16:26:39.835Z,68.2
2023-05-02T16:28:03.231Z,68.7
2023-05-02T16:29:26.639Z,68
2023-05-02T16:30:50.060Z,69
2023-05-02T16:32:13.460Z,68.1
2023-05-02T16:33:36.878Z,67.1
2023-05-02T16:35:00.270Z,67.8
2023-05-02T16:36:22.701Z,68.3
2023-05-02T16:37:46.105Z,67.6
2023-05-02T16:39:09.512Z,67.2
2023-05-02T16:40:32.924Z,67.8
2023-05-02T16:41:56.323Z,67
2023-05-02T16:43:19.747Z,67.9
2023-05-02T16:44:43.148Z,67.9
2023-05-02T16:46:06.562Z,68.3
2023-05-02T16:47:29.965Z,68.3
2023-05-02T16:48:53.376Z,69.3
2023-05-02T16:50:16.773Z,68.4
2023-05-02T16:51:40.185Z,69.2
2023-05-02T16:53:03.609Z,68.8
2023-05-02T16:54:26.023Z,68.6
2023-05-02T16:55:49.442Z,68.3
2023-05-02T16:57:12.836Z,68.4
2023-05-02T16:58:36.248Z,68.8
2023-05-02T16:59:59.650Z,69.9
2023-05-02T17:01:23.052Z,68.8
2023-05-02T17:02:46.467Z,68.8
2023-05-02T17:04:09.883Z,68.5
2023-05-02T17:05:33.303Z,69.5
2023-05-02T17:06:56.705Z,69.1
2023-05-02T17:08:20.120Z,69.9
2023-05-02T17:09:43.518Z,69.8
2023-05-02T17:11:06.924Z,70
2023-05-02T17:12:29.363Z,71.3
2023-05-02T17:13:52.756Z,70.4
2023-05-02T17:15:16.179Z,70.2
2023-05-02T17:16:39.592Z,71
2023-05-02T17:18:02.988Z,70.7
2023-05-02T17:19:26.392Z,70.6
2023-05-02T17:20:49.812Z,70.7
2023-05-02T17:22:13.217Z,69.7
2023-05-02T17:23:36.622Z,70.5
2023-05-02T17:25:00.043Z,70.7
2023-05-02T17:26:23.449Z,70.3
2023-05-02T17:27:46.845Z,70.4
2023-05-02T17:29:10.270Z,70.3
2023-05-02T17:30:32.677Z,69.9
2023-05-02T17:31:56.090Z,69.9
2023-05-02T17:33:19.500Z,69.5
2023-05-02T17:34:42.000Z,69.5
2023-05-02T17:36:06.332Z,69.3
2023-05-02T17:37:29.721Z,69
2023-05-02T17:38:53.132Z,69.7
2023-05-02T17:40:16.537Z,68.5
2023-05-02T17:41:39.958Z,68.6
2023-05-02T17:43:03.364Z,69.7
2023-05-02T17:44:26.776Z,69.3
2023-05-02T17:45:50.178Z,68.9
2023-05-02T17:47:13.599Z,68.4
2023-05-02T17:48:36.030Z,69
2023-05-02T17:49:59.433Z,69.2
2023-05-02T17:51:22.851Z,70.2
2023-05-02T17:52:46.272Z,69.5
2023-05-02T17:54:09.674Z,70.2
2023-05-02T17:55:33.086Z,70.5
2023-05-02T17:56:56.484Z,70.2
2023-05-02T17:58:19.903Z,71.3
2023-05-02T17:59:43.295Z,71.5
2023-05-02T18:01:06.708Z,70.3
2023-05-02T18:02:30.116Z,70.7
2023-05-02T18:03:53.537Z,70.7
2023-05-02T18:05:16.929Z,70.8
2023-05-02T18:06:39.361Z,70.6
2023-05-02T18:08:02.772Z,70.9
2023-05-02T18:09:26.185Z,71
2023-05-02T18:10:49.596Z,71
2023-05-02T18:12:13.009Z,71.6
2023-05-02T18:13:36.428Z,71
2023-05-02T18:14:58.855Z,71
2023-05-02T18:16:22.263Z,70.8
2023-05-02T18:17:45.665Z,70
2023-05-02T18:19:09.073Z,70.2
2023-05-02T18:20:32.484Z,69.5
2023-05-02T18:21:55.904Z,69.8
2023-05-02T18:23:19.314Z,69.9
2023-05-02T18:24:42.702Z,69.9
2023-05-02T18:26:06.130Z,70.3
2023-05-02T18:27:29.524Z,69.5
2023-05-02T18:28:52.934Z,69.5
2023-05-02T18:30:16.347Z,69.7
2023-05-02T18:31:39.745Z,69.9
2023-05-02T18:33:02.181Z,69.5
2023-05-02T18:34:25.578Z,69.5
2023-05-02T18:35:48.981Z,69.1
2023-05-02T18:37:12.397Z,69.2
2023-05-02T18:38:35.796Z,70.1
2023-05-02T18:39:59.211Z,70
2023-05-02T18:41:22.628Z,70.2
2023-05-02T18:42:46.034Z,69.9
2023-05-02T18:44:09.431Z,70
2023-05-02T18:45:32.833Z,69.3
2023-05-02T18:46:56.246Z,69.5
2023-05-02T18:48:19.653Z,69.7
2023-05-02T18:49:43.072Z,70.2
2023-05-02T18:51:05.496Z,70
2023-05-02T18:52:28.903Z,69.4
2023-05-02T18:53:52.310Z,69.2
2023-05-02T18:55:15.754Z,69.2
2023-05-02T18:56:39.151Z,69.8
2023-05-02T18:58:02.615Z,69.3
2023-05-02T18:59:26.015Z,68.3
2023-05-02T19:00:49.424Z,69.1
2023-05-02T19:02:12.827Z,69.2
2023-05-02T19:03:36.278Z,69.4
2023-05-02T19:04:59.735Z,69.4
2023-05-02T19:06:23.194Z,69.3
2023-05-02T19:07:46.640Z,69.2
2023-05-02T19:09:09.113Z,70.1
2023-05-02T19:10:32.574Z,69.7
2023-05-02T19:11:56.013Z,69.9
2023-05-02T19:13:19.474Z,70.4
2023-05-02T19:14:42.904Z,69.9
2023-05-02T19:16:06.366Z,70.7
2023-05-02T19:17:29.803Z,70.7
2023-05-02T19:18:53.262Z,71.2
2023-05-02T19:20:16.715Z,71.9
2023-05-02T19:21:40.172Z,70.8
2023-05-02T19:23:03.613Z,71.6
2023-05-02T19:24:27.065Z,72.1
2023-05-02T19:25:50.523Z,72.1
2023-05-02T19:27:12.983Z,72.2
2023-05-02T19:28:36.430Z,72.1
2023-05-02T19:29:59.892Z,71.8
2023-05-02T19:31:23.327Z,71.9
2023-05-02T19:32:46.771Z,71.8
2023-05-02T19:34:10.228Z,72
2023-05-02T19:35:33.686Z,71.3
2023-05-02T19:36:57.130Z,71.3
2023-05-02T19:38:20.572Z,72.1
2023-05-02T19:39:44.033Z,71.9
2023-05-02T19:41:07.480Z,71.7
2023-05-02T19:42:30.932Z,71.6
2023-05-02T19:43:54.370Z,71.8
2023-05-02T19:45:16.840Z,71.8
2023-05-02T19:46:40.300Z,72.1
2023-05-02T19:48:03.739Z,72.1
2023-05-02T19:49:27.191Z,72.5
2023-05-02T19:50:50.646Z,72.3
2023-05-02T19:52:14.089Z,72.3
2023-05-02T19:53:37.551Z,72.6
2023-05-02T19:55:00.990Z,72.7
2023-05-02T19:56:24.442Z,71.5
2023-05-02T19:57:47.882Z,71.7
2023-05-02T19:59:11.347Z,72.1
2023-05-02T20:00:34.798Z,72.5
2023-05-02T20:01:58.240Z,72.1
2023-05-02T20:03:20.702Z,72.2
2023-05-02T20:04:44.151Z,72.3
2023-05-02T20:06:07.613Z,71.8
2023-05-02T20:07:31.048Z,71.7
2023-05-02T20:08:54.510Z,72.2
2023-05-02T20:10:17.962Z,71.6
2023-05-02T20:11:41.405Z,71.4
2023-05-02T20:13:04.869Z,72.3
2023-05-02T20:14:28.314Z,72.5
2023-05-02T20:15:51.756Z,71.5
2023-05-02T20:17:15.207Z,72
2023-05-02T20:18:38.648Z,71.5
2023-05-02T20:20:02.114Z,72.3
2023-05-02T20:21:24.572Z,72.2
2023-05-02T20:22:48.025Z,72.4
2023-05-02T20:24:11.478Z,72.1
2023-05-02T20:25:34.930Z,71.8
2023-05-02T20:26:58.358Z,71.2
2023-05-02T20:28:21.812Z,71.7
2023-05-02T20:29:45.260Z,71.8
2023-05-02T20:31:08.715Z,71.7
2023-05-02T20:32:32.168Z,71.7
2023-05-02T20:33:55.623Z,72
2023-05-02T20:35:19.060Z,72.6
2023-05-02T20:36:42.506Z,72.4
2023-05-02T20:38:05.970Z,72.1
2023-05-02T20:39:28.420Z,72.5
2023-05-02T20:40:51.891Z,72.3
2023-05-02T20:42:15.342Z,72.4
2023-05-02T20:43:38.783Z,72.3
2023-05-02T20:45:02.242Z,72.2
2023-05-02T20:46:25.693Z,71.8
2023-05-02T20:47:49.133Z,72.2
2023-05-02T20:49:12.573Z,71.9
2023-05-02T20:50:36.022Z,72
2023-05-02T20:51:59.478Z,72
2023-05-02T20:53:22.922Z,71.3
2023-05-02T20:54:46.370Z,71.5
2023-05-02T20:56:09.828Z,71.7
2023-05-02T20:57:32.292Z,70.9
2023-05-02T20:58:55.741Z,71.1
2023-05-02T21:00:19.179Z,70.8
2023-05-02T21:01:42.632Z,71.1
2023-05-02T21:03:06.085Z,70.8
2023-05-02T21:04:29.537Z,70.9
2023-05-02T21:05:52.983Z,70.8
2023-05-02T21:07:16.435Z,71.1
2023-05-02T21:08:39.883Z,70.7
2023-05-02T21:10:03.338Z,71.1
2023-05-02T21:11:26.777Z,70.5
2023-05-02T21:12:50.243Z,69.6
2023-05-02T21:14:13.696Z,70.3
2023-05-02T21:15:36.146Z,70.6
2023-05-02T21:16:59.603Z,70.4
2023-05-02T21:18:23.051Z,69.1
2023-05-02T21:19:46.503Z,69.7
2023-05-02T21:21:09.951Z,69.4
2023-05-02T21:36:33.243Z,71.1
2023-05-02T21:51:56.542Z,73.5
2023-05-02T22:07:19.845Z,74
2023-05-02T22:22:43.154Z,74.5
2023-05-02T22:38:06.450Z,74.6
2023-05-02T22:53:29.744Z,75.1
2023-05-02T23:08:53.050Z,75.5
2023-05-02T23:24:16.348Z,75.3
2023-05-02T23:39:38.673Z,76.1
2023-05-02T23:55:01.968Z,76.4
